Stations météo

réclame
Mon MeteoGroup
Monte S. Angelo, Italie (16258): Température de l'air & dewpoint: 16.06.2018 19:00:00 - 22.06.2018 19:00:00 (CEST)Monte S. Angelo, Italie (16258): Vitesse du vent: 16.06.2018 19:00:00 - 22.06.2018 19:00:00 (CEST)Monte S. Angelo, Italie (16258): Direction du vent: 16.06.2018 19:00:00 - 22.06.2018 19:00:00 (CEST)Monte S. Angelo, Italie (16258): visibility: 16.06.2018 19:00:00 - 22.06.2018 19:00:00 (CEST)
Date & Time tt [°C] td [°C] ff [km/h] ff [knt] dd vv [km]
22.06.2018 19:00:00 20,2 16,2 8 4 W 15
22.06.2018 18:00:00 19,0 13,4 15 8 SSW 13
22.06.2018 17:00:00 18,0 14,5 24 13 SSW 10
22.06.2018 16:00:00 21,0 15,3 18 10 S 10
22.06.2018 15:00:00 20,0 16,4 22 12 SSE 10
22.06.2018 14:00:00 23,6 14,3 11 6 SSE 15
22.06.2018 13:00:00 22,6 13,9 15 8 S 15
22.06.2018 12:00:00 22,0 14,4 11 6 SSE 15
22.06.2018 11:00:00 21,4 13,3 15 8 S 20
22.06.2018 10:00:00 22,6 12,5 4 2 NNW 20
22.06.2018 09:00:00 21,4 12,0 8 4 N 20
22.06.2018 08:00:00 20,2 11,2 4 2 N 20
22.06.2018 07:00:00 19,4 9,3 0 0 N 20
22.06.2018 06:00:00 19,6 7,4 4 2 N 20
22.06.2018 05:00:00 20,4 6,4 4 2 WNW 20
22.06.2018 04:00:00 20,0 10,1 4 2 SSW 20
22.06.2018 03:00:00 19,6 11,6 4 2 SSW 20
22.06.2018 02:00:00 19,4 13,8 4 2 SSW 20
22.06.2018 01:00:00 19,0 14,5 8 4 S 20
22.06.2018 00:00:00 18,6 12,4 11 6 S 20
21.06.2018 23:00:00 19,4 11,4 11 6 S 20
21.06.2018 22:00:00 19,8 6,5 11 6 S 20
21.06.2018 21:00:00 20,0 5,3 9 5 S 20
21.06.2018 20:00:00 21,0 6,2 11 6 S 20
21.06.2018 19:00:00 20,2 6,2 11 6 S 20
21.06.2018 18:00:00 21,0 9,3 9 5 S 20
21.06.2018 17:00:00 23,0 8,7 8 4 S 20
21.06.2018 16:00:00 24,0 7,6 9 5 S 20
21.06.2018 15:00:00 23,0 7,9 9 5 S 20
21.06.2018 14:00:00 22,6 10,1 9 5 S 20
21.06.2018 13:00:00 22,0 10,5 5 3 S 20
21.06.2018 12:00:00 21,6 11,0 8 4 S 20
21.06.2018 11:00:00 21,0 11,9 8 4 S 20
21.06.2018 10:00:00 20,6 10,7 5 3 S 20
21.06.2018 09:00:00 20,4 11,1 4 2 S 20
21.06.2018 08:00:00 19,4 10,1 4 2 S 15
21.06.2018 07:00:00 19,0 10,5 5 3 N 15
21.06.2018 06:00:00 18,4 10,2 4 2 N 15
21.06.2018 05:00:00 18,4 10,5 0 0 N 12
21.06.2018 04:00:00 18,4 10,5 4 2 N 10
21.06.2018 03:00:00 18,2 10,3 4 2 N 10
21.06.2018 02:00:00 18,2 10,3 0 0 N 10
21.06.2018 01:00:00 18,2 11,5 0 0 N 10
21.06.2018 00:00:00 18,4 12,8 4 2 N 10
20.06.2018 23:00:00 18,0 13,5 5 3 N 10
20.06.2018 22:00:00 18,4 11,7 5 3 N 12
20.06.2018 21:00:00 20,0 11,2 8 4 N 18
20.06.2018 20:00:00 21,0 11,4 4 2 NNE 18
20.06.2018 19:00:00 20,0 10,1 8 4 NE 18
20.06.2018 18:00:00 20,8 9,4 8 4 ENE 20
20.06.2018 17:00:00 22,0 10,5 8 4 ENE 20
20.06.2018 16:00:00 21,6 11,3 4 2 NE 20
20.06.2018 15:00:00 22,6 12,5 11 6 NE 18
20.06.2018 14:00:00 22,0 12,0 11 6 NNE 18
20.06.2018 13:00:00 21,6 11,6 11 6 NNE 18
20.06.2018 12:00:00 21,4 11,4 8 4 NE 18
20.06.2018 11:00:00 21,4 12,0 8 4 NE 18
20.06.2018 10:00:00 20,4 14,3 8 4 NE 18
20.06.2018 09:00:00 18,6 13,7 15 8 N 18
20.06.2018 08:00:00 17,2 13,3 21 11 N 15
20.06.2018 07:00:00 16,6 13,1 24 13 NNW 10
20.06.2018 06:00:00 16,2 12,4 24 13 NW 10
20.06.2018 05:00:00 16,0 14,7 24 13 NNW 0,1
20.06.2018 04:00:00 15,8 14,8 26 14 NNW -
20.06.2018 03:00:00 16,2 15,4 28 15 NW -
20.06.2018 02:00:00 16,6 12,0 34 18 NW 20
20.06.2018 01:00:00 16,2 12,5 24 13 NW 20
20.06.2018 00:00:00 16,0 13,3 29 16 NW 20
19.06.2018 23:00:00 16,4 13,1 24 13 NNW 20
19.06.2018 22:00:00 16,2 13,3 28 15 NW 20
19.06.2018 21:00:00 16,6 9,1 26 14 NW 20
19.06.2018 20:00:00 18,6 12,4 22 12 NW 25
19.06.2018 19:00:00 19,0 12,5 28 15 NW 25
19.06.2018 18:00:00 19,4 12,9 28 15 NW 25
19.06.2018 17:00:00 19,8 13,3 22 12 NW 25
19.06.2018 16:00:00 20,4 13,6 24 13 NW 25
19.06.2018 15:00:00 20,4 13,6 18 10 NW 25
19.06.2018 14:00:00 20,4 13,6 18 10 NW 20
19.06.2018 13:00:00 19,8 13,0 21 11 NW 20
19.06.2018 12:00:00 19,8 13,5 18 10 NW 20
19.06.2018 11:00:00 19,0 13,0 18 10 NW 20
19.06.2018 10:00:00 18,8 13,7 18 10 WNW 20
19.06.2018 09:00:00 18,0 14,5 24 13 NW 20
19.06.2018 08:00:00 17,0 14,1 22 12 NW 15
19.06.2018 07:00:00 16,4 13,7 18 10 NW 15
19.06.2018 06:00:00 16,6 14,2 21 11 WNW 15
19.06.2018 05:00:00 16,4 13,3 18 10 NNW 15
19.06.2018 04:00:00 16,8 12,4 22 12 NW 15
19.06.2018 03:00:00 17,0 13,5 28 15 WNW 15
19.06.2018 02:00:00 17,2 14,1 29 16 NW 15
19.06.2018 01:00:00 16,2 13,9 26 14 NNW 15
19.06.2018 00:00:00 16,8 14,1 29 16 NW 15
18.06.2018 23:00:00 16,6 14,1 28 15 NW 15
18.06.2018 22:00:00 16,8 14,8 26 14 WNW 15
18.06.2018 21:00:00 16,6 15,0 22 12 NNW 15
18.06.2018 20:00:00 17,6 14,1 28 15 NW 15
18.06.2018 19:00:00 18,2 11,5 34 18 WNW 15
18.06.2018 18:00:00 19,2 15,3 29 16 W 10
18.06.2018 17:00:00 19,2 14,9 31 17 W 10
18.06.2018 16:00:00 20,2 15,6 28 15 W 10
18.06.2018 15:00:00 20,2 15,4 29 16 W 10
18.06.2018 14:00:00 20,0 15,2 28 15 W 10
18.06.2018 13:00:00 19,2 14,7 26 14 W 10
18.06.2018 12:00:00 19,2 15,1 26 14 W 10
18.06.2018 11:00:00 18,0 14,1 24 13 W 10
18.06.2018 10:00:00 17,8 13,9 26 14 W 10
18.06.2018 09:00:00 16,2 12,9 28 15 W 10
18.06.2018 08:00:00 15,8 12,7 29 16 W 15
18.06.2018 07:00:00 15,2 12,3 26 14 W 15
18.06.2018 06:00:00 15,0 12,1 22 12 W 15
18.06.2018 05:00:00 15,0 12,3 15 8 W 15
18.06.2018 04:00:00 14,8 12,1 11 6 W 15
18.06.2018 03:00:00 15,0 12,3 8 4 WNW 15
18.06.2018 02:00:00 14,8 12,1 9 5 WNW 15
18.06.2018 01:00:00 15,2 12,3 8 4 WNW 15
18.06.2018 00:00:00 15,2 12,3 11 6 WNW 15
17.06.2018 23:00:00 15,4 12,5 11 6 NW 15
17.06.2018 22:00:00 15,6 12,5 15 8 NW 15
17.06.2018 21:00:00 16,0 12,5 15 8 NW 15
17.06.2018 20:00:00 17,0 12,5 24 13 WNW 20
17.06.2018 19:00:00 17,4 13,1 26 14 NW 20
17.06.2018 18:00:00 18,4 12,8 22 12 NW 20
17.06.2018 17:00:00 19,2 13,2 18 10 NW 20
17.06.2018 16:00:00 18,6 12,8 22 12 NNW 20
17.06.2018 15:00:00 18,8 13,2 15 8 WNW 20
17.06.2018 14:00:00 19,0 13,0 18 10 NW 20
17.06.2018 13:00:00 18,0 12,5 24 13 NW 20
17.06.2018 12:00:00 18,2 13,3 22 12 NNW 20
17.06.2018 11:00:00 17,4 12,9 26 14 NNW 15
17.06.2018 10:00:00 16,8 13,3 22 12 NW 15
17.06.2018 09:00:00 16,0 13,7 26 14 NNW 13
17.06.2018 08:00:00 15,2 12,5 28 15 NNW 10
17.06.2018 07:00:00 14,6 12,8 34 18 NNW 10
17.06.2018 06:00:00 14,6 13,0 28 15 NNW -
17.06.2018 05:00:00 14,8 12,5 24 13 NNW 10
17.06.2018 04:00:00 14,8 12,3 31 17 N 10
17.06.2018 03:00:00 14,8 11,6 34 18 NNW 20
17.06.2018 02:00:00 14,8 11,0 28 15 NNW 20
17.06.2018 01:00:00 14,8 12,0 24 13 NNW 20
17.06.2018 00:00:00 14,8 11,6 29 16 NNW 20
16.06.2018 23:00:00 15,0 11,4 29 16 NNW 20
16.06.2018 22:00:00 15,0 11,6 26 14 NNW 20
16.06.2018 21:00:00 15,0 12,0 28 15 NNW 20
16.06.2018 20:00:00 15,0 12,1 26 14 NNW 20
16.06.2018 19:00:00 15,0 12,1 28 15 NNW 18

tt = Température de l'air
td = dewpoint
ff = Vitesse du vent
dd = Direction du vent
vv = visibility

stations d'obs. à proximité